Riley, Indiana
Current Conditions -  °F | °C
As of 11:53 AM on Thursday 27 Nov 2014 (Local Time) from KHUF Reporting Station
Overcast Overcast  
Wind Chill: 19°   Ceiling: 1800
Heat Index: 28°   Visibility: 7mi
Dew Point: 21°   Wind: 9mph
Humidity: 75%   Direction: 290°WNW
Pressure: 30.39"   Gusts: 18mph
Location:  39.39°N, 87.3°W
Report Text: KHUF 271653Z 29008G16KT 7SM OVC018 M02/M06 A3039 RMK AO2 SLP299 T10221061
Loading
Personal Weather Stations






























Interactive Weather Map New forecast layout! Learn more

10-Day Weather Forecast

Advertisements
Track Severe Weather on mobile